SWA4791 KHOU-KBHM
Flight info
| Callsign | SWA4791 |
|---|---|
| Flight time | N/A |
| Altitude | 35000 |
| Route | STRYA8 DPATY MEI LYMPH |
| Aircraft | B738/M-SDE2E3FGHIRWXY/L |
Departure
| Time | 2026-05-05 22:08 |
|---|---|
| Airport | William P. Hobby Airport (KHOU) |
Arrival
| Time | N/A |
|---|---|
| Airport | Birmingham-Shuttlesworth International Airport (KBHM) |
| Time | Latitude | Longitude | Altitude | Speed | Heading |
|---|---|---|---|---|---|
| 2026-05-05 21:45 | 29.65241 | -95.27618 | 47 ft | 0 kts | 22° |
| 2026-05-05 21:58 | 29.65235 | -95.27621 | 47 ft | 2 kts | 22° |
| 2026-05-05 21:58 | 29.65222 | -95.27627 | 47 ft | 2 kts | 22° |
| 2026-05-05 21:59 | 29.65208 | -95.27633 | 47 ft | 2 kts | 22° |
| 2026-05-05 21:59 | 29.65194 | -95.27640 | 47 ft | 2 kts | 22° |
| 2026-05-05 21:59 | 29.65180 | -95.27647 | 47 ft | 2 kts | 43° |
| 2026-05-05 21:59 | 29.65171 | -95.27660 | 47 ft | 2 kts | 70° |
| 2026-05-05 22:00 | 29.65169 | -95.27671 | 47 ft | 0 kts | 87° |
| 2026-05-05 22:00 | 29.65169 | -95.27679 | 47 ft | 0 kts | 89° |
| 2026-05-05 22:03 | 29.65167 | -95.27638 | 47 ft | 14 kts | 102° |
| 2026-05-05 22:03 | 29.65134 | -95.27540 | 47 ft | 9 kts | 150° |
| 2026-05-05 22:04 | 29.65115 | -95.27529 | 47 ft | 0 kts | 156° |
| 2026-05-05 22:04 | 29.65107 | -95.27500 | 47 ft | 5 kts | 97° |
| 2026-05-05 22:04 | 29.65106 | -95.27432 | 47 ft | 10 kts | 88° |
| 2026-05-05 22:04 | 29.65134 | -95.27364 | 47 ft | 10 kts | 49° |
| 2026-05-05 22:05 | 29.65187 | -95.27304 | 47 ft | 11 kts | 43° |
| 2026-05-05 22:05 | 29.65247 | -95.27234 | 45 ft | 14 kts | 46° |
| 2026-05-05 22:05 | 29.65314 | -95.27158 | 47 ft | 12 kts | 43° |
| 2026-05-05 22:05 | 29.65377 | -95.27092 | 46 ft | 12 kts | 44° |
| 2026-05-05 22:06 | 29.65438 | -95.27024 | 44 ft | 9 kts | 43° |
| 2026-05-05 22:06 | 29.65470 | -95.26973 | 44 ft | 7 kts | 89° |
| 2026-05-05 22:06 | 29.65448 | -95.26926 | 44 ft | 6 kts | 129° |
| 2026-05-05 22:06 | 29.65420 | -95.26897 | 44 ft | 5 kts | 159° |
| 2026-05-05 22:07 | 29.65374 | -95.26917 | 44 ft | 6 kts | 224° |
| 2026-05-05 22:07 | 29.65373 | -95.26917 | 44 ft | 0 kts | 224° |
| 2026-05-05 22:07 | 29.65319 | -95.26977 | 44 ft | 42 kts | 222° |
| 2026-05-05 22:08 | 29.64882 | -95.27460 | 47 ft | 128 kts | 224° |
| 2026-05-05 22:08 | 29.64126 | -95.28287 | 604 ft | 149 kts | 219° |
| 2026-05-05 22:08 | 29.63576 | -95.28916 | 1823 ft | 116 kts | 221° |
| 2026-05-05 22:08 | 29.62954 | -95.29672 | 2181 ft | 140 kts | 223° |
| 2026-05-05 22:09 | 29.62278 | -95.30498 | 2791 ft | 149 kts | 223° |
| 2026-05-05 22:09 | 29.61740 | -95.31530 | 3373 ft | 167 kts | 253° |
| 2026-05-05 22:09 | 29.61898 | -95.32914 | 3987 ft | 190 kts | 290° |
| 2026-05-05 22:09 | 29.62754 | -95.34130 | 4616 ft | 209 kts | 314° |
| 2026-05-05 22:10 | 29.64044 | -95.34944 | 5213 ft | 229 kts | 340° |
| 2026-05-05 22:10 | 29.65718 | -95.35040 | 5829 ft | 250 kts | 4° |
| 2026-05-05 22:10 | 29.67465 | -95.34731 | 6464 ft | 266 kts | 7° |
| 2026-05-05 22:10 | 29.69299 | -95.34315 | 7133 ft | 282 kts | 12° |
| 2026-05-05 22:11 | 29.71230 | -95.33780 | 7853 ft | 294 kts | 12° |
| 2026-05-05 22:11 | 29.73255 | -95.33253 | 8634 ft | 303 kts | 11° |
| 2026-05-05 22:11 | 29.75317 | -95.32779 | 9581 ft | 305 kts | 9° |
| 2026-05-05 22:11 | 29.77424 | -95.32336 | 10438 ft | 311 kts | 8° |
| 2026-05-05 22:12 | 29.79579 | -95.31906 | 11008 ft | 326 kts | 7° |
| 2026-05-05 22:12 | 29.81876 | -95.31455 | 11591 ft | 340 kts | 6° |
| 2026-05-05 22:12 | 29.84258 | -95.30987 | 12090 ft | 357 kts | 6° |
| 2026-05-05 22:12 | 29.86775 | -95.30489 | 12590 ft | 372 kts | 6° |
| 2026-05-05 22:13 | 29.89338 | -95.29981 | 13077 ft | 386 kts | 5° |
| 2026-05-05 22:13 | 29.92049 | -95.29440 | 13554 ft | 400 kts | 5° |
| 2026-05-05 22:13 | 29.94806 | -95.28889 | 14070 ft | 411 kts | 5° |
| 2026-05-05 22:13 | 29.97647 | -95.28316 | 14670 ft | 419 kts | 5° |
| 2026-05-05 22:14 | 30.00533 | -95.27730 | 15455 ft | 422 kts | 5° |
| 2026-05-05 22:14 | 30.03456 | -95.27131 | 16244 ft | 425 kts | 5° |
| 2026-05-05 22:14 | 30.06364 | -95.26358 | 16951 ft | 433 kts | 11° |
| 2026-05-05 22:14 | 30.09208 | -95.25165 | 17638 ft | 443 kts | 19° |
| 2026-05-05 22:15 | 30.11936 | -95.23511 | 18312 ft | 452 kts | 25° |
| 2026-05-05 22:15 | 30.14633 | -95.21573 | 18937 ft | 459 kts | 28° |
| 2026-05-05 22:15 | 30.17317 | -95.19473 | 19582 ft | 465 kts | 29° |
| 2026-05-05 22:15 | 30.19980 | -95.17318 | 20111 ft | 472 kts | 30° |
| 2026-05-05 22:16 | 30.22661 | -95.15121 | 20730 ft | 476 kts | 30° |
| 2026-05-05 22:16 | 30.25384 | -95.12882 | 21292 ft | 481 kts | 29° |
| 2026-05-05 22:16 | 30.28099 | -95.10656 | 21845 ft | 486 kts | 29° |
| 2026-05-05 22:16 | 30.30857 | -95.08404 | 22379 ft | 491 kts | 29° |
| 2026-05-05 22:17 | 30.33685 | -95.06106 | 22879 ft | 496 kts | 28° |
| 2026-05-05 22:17 | 30.36510 | -95.03818 | 23412 ft | 500 kts | 28° |
| 2026-05-05 22:17 | 30.39371 | -95.01505 | 23977 ft | 503 kts | 28° |
| 2026-05-05 22:17 | 30.42273 | -94.99177 | 24451 ft | 508 kts | 27° |
| 2026-05-05 22:18 | 30.45198 | -94.96889 | 25000 ft | 510 kts | 26° |
| 2026-05-05 22:18 | 30.48156 | -94.94618 | 25434 ft | 514 kts | 26° |
| 2026-05-05 22:18 | 30.51146 | -94.92345 | 25905 ft | 518 kts | 26° |
| 2026-05-05 22:18 | 30.54172 | -94.90051 | 26321 ft | 523 kts | 25° |
| 2026-05-05 22:19 | 30.57235 | -94.87727 | 26789 ft | 526 kts | 25° |
| 2026-05-05 22:19 | 30.60319 | -94.85381 | 27249 ft | 529 kts | 26° |
| 2026-05-05 22:19 | 30.63370 | -94.83050 | 27890 ft | 528 kts | 25° |
| 2026-05-05 22:19 | 30.66401 | -94.80722 | 28553 ft | 525 kts | 25° |
| 2026-05-05 22:20 | 30.69463 | -94.78365 | 29203 ft | 523 kts | 25° |
| 2026-05-05 22:20 | 30.72495 | -94.76025 | 29875 ft | 521 kts | 25° |
| 2026-05-05 22:20 | 30.75475 | -94.73723 | 30525 ft | 518 kts | 25° |
| 2026-05-05 22:20 | 30.78457 | -94.71417 | 31114 ft | 517 kts | 25° |
| 2026-05-05 22:21 | 30.81444 | -94.69110 | 31648 ft | 517 kts | 24° |
| 2026-05-05 22:21 | 30.84439 | -94.66798 | 32125 ft | 518 kts | 24° |
| 2026-05-05 22:21 | 30.87432 | -94.64486 | 32598 ft | 518 kts | 24° |
| 2026-05-05 22:21 | 30.90456 | -94.62149 | 33085 ft | 518 kts | 24° |
| 2026-05-05 22:22 | 30.93472 | -94.59815 | 33664 ft | 517 kts | 24° |
| 2026-05-05 22:22 | 30.96368 | -94.57420 | 34367 ft | 518 kts | 28° |
| 2026-05-05 22:22 | 30.99149 | -94.54628 | 34795 ft | 527 kts | 37° |
| 2026-05-05 22:22 | 31.01585 | -94.51360 | 34818 ft | 539 kts | 47° |
| 2026-05-05 22:23 | 31.03631 | -94.47698 | 34819 ft | 540 kts | 53° |
| 2026-05-05 22:23 | 31.07201 | -94.39962 | 34819 ft | 543 kts | 58° |
| 2026-05-05 22:24 | 31.10514 | -94.32040 | 34819 ft | 546 kts | 60° |
| 2026-05-05 22:24 | 31.13801 | -94.24081 | 34817 ft | 543 kts | 59° |
| 2026-05-05 22:25 | 31.17100 | -94.16194 | 34818 ft | 542 kts | 58° |
| 2026-05-05 22:25 | 31.20433 | -94.08318 | 34815 ft | 543 kts | 58° |
| 2026-05-05 22:26 | 31.23784 | -94.00436 | 34812 ft | 541 kts | 59° |
| 2026-05-05 22:26 | 31.27133 | -93.92564 | 34815 ft | 541 kts | 58° |
| 2026-05-05 22:27 | 31.30467 | -93.84712 | 34817 ft | 540 kts | 58° |
| 2026-05-05 22:27 | 31.33574 | -93.76704 | 34818 ft | 544 kts | 62° |
| 2026-05-05 22:28 | 31.36345 | -93.68486 | 34819 ft | 545 kts | 64° |
| 2026-05-05 22:28 | 31.39053 | -93.60223 | 34824 ft | 546 kts | 64° |
| 2026-05-05 22:29 | 31.41778 | -93.52010 | 34829 ft | 545 kts | 64° |
| 2026-05-05 22:29 | 31.44564 | -93.43745 | 34830 ft | 543 kts | 63° |
| 2026-05-05 22:30 | 31.47367 | -93.35506 | 34825 ft | 544 kts | 63° |
| 2026-05-05 22:30 | 31.50161 | -93.27307 | 34819 ft | 545 kts | 64° |
| 2026-05-05 22:31 | 31.52950 | -93.19099 | 34828 ft | 541 kts | 63° |
| 2026-05-05 22:31 | 31.55725 | -93.10902 | 34825 ft | 542 kts | 63° |
| 2026-05-05 22:32 | 31.58491 | -93.02715 | 34827 ft | 543 kts | 64° |
| 2026-05-05 22:32 | 31.61280 | -92.94450 | 34824 ft | 543 kts | 63° |
| 2026-05-05 22:33 | 31.64029 | -92.86266 | 34825 ft | 540 kts | 63° |
| 2026-05-05 22:33 | 31.66771 | -92.78087 | 34824 ft | 541 kts | 63° |
| 2026-05-05 22:34 | 31.69531 | -92.69829 | 34822 ft | 542 kts | 63° |
| 2026-05-05 22:34 | 31.72267 | -92.61631 | 34826 ft | 543 kts | 63° |
| 2026-05-05 22:35 | 31.75004 | -92.53394 | 34820 ft | 540 kts | 63° |
| 2026-05-05 22:35 | 31.77713 | -92.45228 | 34820 ft | 540 kts | 63° |
| 2026-05-05 22:36 | 31.80430 | -92.37020 | 34825 ft | 540 kts | 63° |
| 2026-05-05 22:36 | 31.83137 | -92.28823 | 34842 ft | 539 kts | 64° |
| 2026-05-05 22:37 | 31.85846 | -92.20604 | 34835 ft | 539 kts | 64° |
| 2026-05-05 22:37 | 31.88547 | -92.12380 | 34825 ft | 539 kts | 63° |
| 2026-05-05 22:38 | 31.91229 | -92.04189 | 34838 ft | 538 kts | 63° |
| 2026-05-05 22:38 | 31.93914 | -91.95970 | 34833 ft | 538 kts | 63° |
| 2026-05-05 22:39 | 31.96578 | -91.87793 | 34829 ft | 536 kts | 63° |
| 2026-05-05 22:39 | 31.99235 | -91.79622 | 34831 ft | 537 kts | 63° |
| 2026-05-05 22:40 | 32.01915 | -91.71360 | 34833 ft | 537 kts | 63° |
| 2026-05-05 22:40 | 32.04557 | -91.63195 | 34835 ft | 537 kts | 63° |